Time;durP1;ratioP1;P1;durP2;ratioP2;P2;SDS_P1;SDS_P2;PMS_P1;PMS_P2;Temp;Humidity;BMP_temperature;BMP_pressure;BME280_temperature;BME280_humidity;BME280_pressure;Samples;Min_cycle;Max_cycle;Signal;HPM_P1;HPM_P2
2022/05/19 00:01:07;;;;;;;24.17;15.35;;;;;;;;;;5030882;28;20084;-59
2022/05/19 00:03:34;;;;;;;21.08;15.93;;;;;;;;;;5017037;28;20085;-59
2022/05/19 00:06:00;;;;;;;20.15;14.57;;;;;;;;;;5024843;28;20042;-59
2022/05/19 00:08:27;;;;;;;21.05;15.82;;;;;;;;;;5024962;28;20076;-59
2022/05/19 00:10:55;;;;;;;23.63;17.23;;;;;;;;;;5029861;28;20053;-58
2022/05/19 00:13:21;;;;;;;22.08;15.15;;;;;;;;;;5026277;28;20133;-59
2022/05/19 00:15:47;;;;;;;21.40;15.82;;;;;;;;;;5017051;28;20056;-59
2022/05/19 00:18:16;;;;;;;21.40;15.80;;;;;;;;;;5025130;28;20046;-58
2022/05/19 00:20:42;;;;;;;23.70;16.55;;;;;;;;;;5029769;28;20050;-58
2022/05/19 00:23:08;;;;;;;22.25;15.82;;;;;;;;;;5017321;28;20069;-59
2022/05/19 00:25:34;;;;;;;23.05;15.52;;;;;;;;;;5021315;28;20041;-59
2022/05/19 00:28:00;;;;;;;25.73;16.75;;;;;;;;;;5029533;28;20049;-58
2022/05/19 00:30:26;;;;;;;23.77;16.27;;;;;;;;;;5012094;28;20100;-59
2022/05/19 00:32:52;;;;;;;24.75;14.98;;;;;;;;;;5012186;28;20125;-58
2022/05/19 00:35:18;;;;;;;22.20;16.15;;;;;;;;;;5011957;28;20140;-58
2022/05/19 00:37:45;;;;;;;24.00;16.52;;;;;;;;;;5018455;28;20557;-59
2022/05/19 00:40:11;;;;;;;23.95;16.13;;;;;;;;;;5012672;28;20461;-58
2022/05/19 00:42:43;;;;;;;24.10;16.23;;;;;;;;;;5019048;28;20079;-59
2022/05/19 00:45:10;;;;;;;21.23;16.40;;;;;;;;;;5027076;28;20049;-61
2022/05/19 00:47:53;;;;;;;21.15;16.00;;;;;;;;;;5012958;28;20067;-59
2022/05/19 00:50:27;;;;;;;24.05;16.05;;;;;;;;;;5016593;28;20045;-59
2022/05/19 00:52:55;;;;;;;28.10;18.00;;;;;;;;;;5019714;28;20097;-59
2022/05/19 00:55:25;;;;;;;27.45;17.52;;;;;;;;;;5021980;28;20457;-59
2022/05/19 00:57:55;;;;;;;24.52;16.80;;;;;;;;;;5031659;28;20111;-58
2022/05/19 01:00:22;;;;;;;;;;;15.50;99.90;;;;;;5019121;28;20144;-58
2022/05/19 01:02:49;;;;;;;22.05;16.77;;;;;;;;;;5018596;28;19925;-59
2022/05/19 01:05:18;;;;;;;25.25;16.13;;;;;;;;;;5025431;28;20050;-58
2022/05/19 01:07:46;;;;;;;26.60;16.42;;;;;;;;;;5020181;28;20116;-58
2022/05/19 01:10:13;;;;;;;25.77;16.90;;;;;;;;;;5019836;28;20049;-58
2022/05/19 01:12:40;;;;;;;27.67;17.40;;;;;;;;;;5017987;28;20046;-59
2022/05/19 01:15:06;;;;;;;24.40;17.65;;;;;;;;;;5015777;28;20042;-58
2022/05/19 01:17:34;;;;;;;26.77;18.52;;;;;;;;;;5015569;28;20208;-59
2022/05/19 01:20:03;;;;;;;25.67;17.48;;;;;;;;;;5022772;28;20045;-59
2022/05/19 01:22:46;;;;;;;25.75;18.00;;;;;;;;;;5028986;28;20076;-58
2022/05/19 01:25:31;;;;;;;24.58;17.13;;;;;;;;;;5015717;28;20037;-58
2022/05/19 01:27:57;;;;;;;25.05;17.63;;;;;;;;;;5010621;28;20443;-58
2022/05/19 01:30:24;;;;;;;27.83;18.70;;;;;;;;;;5030450;28;20045;-58
2022/05/19 01:32:52;;;;;;;25.08;18.50;;;;;;;;;;5020767;28;20080;-58
2022/05/19 01:35:18;;;;;;;26.90;18.70;;;;;;;;;;5016307;28;20046;-58
2022/05/19 01:37:44;;;;;;;25.90;19.20;;;;;;;;;;5025171;28;20451;-59
2022/05/19 01:40:33;;;;;;;25.30;18.35;;;;;;;;;;5017336;28;20358;-58
2022/05/19 01:43:08;;;;;;;28.00;19.20;;;;;;;;;;5022455;28;20072;-58
2022/05/19 01:45:50;;;;;;;24.60;18.58;;;;;;;;;;5013179;28;20046;-58
2022/05/19 01:48:21;;;;;;;23.17;17.90;;;;;;;;;;5013408;28;20141;-59
2022/05/19 01:50:54;;;;;;;29.42;19.25;;;;;;;;;;5014689;28;20049;-58
2022/05/19 01:53:24;;;;;;;25.95;18.55;;;;;;;;;;5023697;28;20367;-58
2022/05/19 01:55:53;;;;;;;;;;;15.60;99.90;;;;;;5018332;28;20056;-59
2022/05/19 01:58:21;;;;;;;25.00;18.48;;;;;;;;;;5012470;28;20348;-58
2022/05/19 02:00:51;;;;;;;27.63;18.98;;;;;;;;;;5023048;28;20468;-58
2022/05/19 02:03:24;;;;;;;26.83;19.33;;;;;;;;;;5023320;28;20137;-59
2022/05/19 02:06:11;;;;;;;28.45;18.83;;;;;;;;;;5021452;28;20052;-59
2022/05/19 02:08:41;;;;;;;31.23;19.08;;;;;;;;;;5016238;28;20045;-58
2022/05/19 02:11:09;;;;;;;26.65;18.20;;;;;;;;;;5029749;28;20049;-58
2022/05/19 02:13:36;;;;;;;27.08;18.75;;;;;;;;;;5021599;28;20045;-59
2022/05/19 02:16:04;;;;;;;27.92;19.00;;;;;;;;;;5019612;28;20038;-59
2022/05/19 02:18:30;;;;;;;23.90;19.55;;;;;;;;;;5013066;28;20095;-58
2022/05/19 02:20:57;;;;;;;25.63;17.70;;;;;;;;;;5028834;28;20037;-59
2022/05/19 02:23:24;;;;;;;26.63;18.75;;;;;;;;;;5035270;28;20064;-58
2022/05/19 02:25:51;;;;;;;29.02;20.23;;;;;;;;;;5017085;28;20081;-59
2022/05/19 02:28:22;;;;;;;30.90;21.13;;;;;;;;;;4999220;28;20045;-59
2022/05/19 02:30:51;;;;;;;31.63;21.33;;;;;;;;;;5020525;28;20140;-58
2022/05/19 02:33:18;;;;;;;34.53;20.65;;;;;;;;;;5019611;28;20041;-58
2022/05/19 02:35:44;;;;;;;27.52;19.60;;;;;;;;;;5023296;28;20085;-58
2022/05/19 02:38:11;;;;;;;28.98;20.35;;;;;;;;;;5028329;28;20060;-58
2022/05/19 02:40:38;;;;;;;31.20;21.77;;;;;;;;;;5018332;28;20041;-59
2022/05/19 02:43:05;;;;;;;33.80;20.95;;;;;;;;;;5032578;28;20586;-59
2022/05/19 02:45:31;;;;;;;32.67;22.73;;;;;;;;;;5025926;28;20053;-58
2022/05/19 02:47:57;;;;;;;32.90;22.15;;;;;;;;;;5014505;28;20053;-58
2022/05/19 02:50:23;;;;;;;35.85;22.65;;;;;;;;;;5021740;28;20081;-58
2022/05/19 02:52:50;;;;;;;33.47;24.00;;;;;;;;;;5020653;28;20041;-59
2022/05/19 02:55:16;;;;;;;33.65;22.63;;;;;;;;;;5014126;28;20049;-58
2022/05/19 02:57:43;;;;;;;32.65;24.02;;;;;;;;;;5014552;28;20065;-58
2022/05/19 03:00:12;;;;;;;35.65;24.25;;;;;;;;;;5023272;28;20061;-58
2022/05/19 03:02:38;;;;;;;32.95;24.40;;;;;;;;;;5030878;28;20057;-58
2022/05/19 03:05:05;;;;;;;32.88;24.45;;;;;;;;;;5021292;28;20045;-57
2022/05/19 03:07:31;;;;;;;36.22;25.60;;;;;;;;;;5032493;28;20041;-58
2022/05/19 03:09:57;;;;;;;36.40;25.45;;;;;;;;;;5018252;28;20045;-58
2022/05/19 03:12:23;;;;;;;33.80;24.65;;;;;;;;;;5031751;28;20433;-58
2022/05/19 03:14:49;;;;;;;38.78;24.55;;;;;;;;;;5029278;28;20086;-58
2022/05/19 03:17:15;;;;;;;37.70;26.65;;;;;;;;;;5022050;28;20514;-58
2022/05/19 03:19:41;;;;;;;38.53;26.98;;;;;;;;;;5018076;28;20046;-58
2022/05/19 03:22:07;;;;;;;46.25;25.55;;;;;;;;;;5014422;28;20477;-57
2022/05/19 03:24:33;;;;;;;42.00;26.75;;;;;;;;;;5014619;28;20080;-58
2022/05/19 03:26:59;;;;;;;37.13;25.85;;;;;;;;;;5017292;28;20132;-58
2022/05/19 03:29:26;;;;;;;42.60;27.75;;;;;;;;;;5012768;28;20038;-58
2022/05/19 03:31:52;;;;;;;39.20;26.75;;;;;;;;;;5014171;28;20054;-58
2022/05/19 03:34:18;;;;;;;39.60;27.08;;;;;;;;;;5014096;28;20549;-58
2022/05/19 03:36:44;;;;;;;42.97;27.73;;;;;;;;;;5033062;28;20116;-58
2022/05/19 03:39:10;;;;;;;40.65;28.50;;;;;;;;;;5022491;28;20054;-58
2022/05/19 03:41:37;;;;;;;44.03;28.38;;;;;;;;;;5024665;28;20095;-58
2022/05/19 03:44:03;;;;;;;43.50;28.27;;;;;;;;;;5032325;28;20409;-58
2022/05/19 03:46:29;;;;;;;45.83;27.38;;;;;;;;;;5019840;28;20042;-58
2022/05/19 03:48:55;;;;;;;41.22;28.95;;;;;;;;;;5021727;28;20053;-58
2022/05/19 03:51:26;;;;;;;39.80;28.83;;;;;;;;;;5020282;28;20132;-58
2022/05/19 03:53:52;;;;;;;;;;;;;;;;;;5020211;28;20037;-58
2022/05/19 03:56:21;;;;;;;44.72;29.98;;;;;;;;;;5013638;28;19967;-58
2022/05/19 03:58:48;;;;;;;41.70;31.63;;;;;;;;;;5019848;28;20450;-58
2022/05/19 04:01:14;;;;;;;43.00;28.88;;;;;;;;;;5029285;28;20057;-59
2022/05/19 04:03:41;;;;;;;46.83;30.95;;;;;;;;;;5032516;28;20092;-58
2022/05/19 04:06:07;;;;;;;49.00;32.00;;;;;;;;;;5013106;28;20059;-59
2022/05/19 04:08:33;;;;;;;44.50;31.00;;;;;;;;;;5027204;28;20056;-58
2022/05/19 04:10:59;;;;;;;41.17;30.13;;;;;;;;;;5017161;28;20045;-58
2022/05/19 04:13:25;;;;;;;45.90;31.95;;;;;;;;;;5032742;28;20052;-58
2022/05/19 04:15:52;;;;;;;55.97;35.30;;;;;;;;;;5024142;28;20045;-58
2022/05/19 04:18:18;;;;;;;49.72;33.40;;;;;;;;;;5013744;28;20102;-58
2022/05/19 04:20:44;;;;;;;44.20;32.45;;;;;;;;;;5021841;28;20041;-58
2022/05/19 04:23:11;;;;;;;48.92;35.05;;;;;;;;;;5032873;28;20080;-58
2022/05/19 04:25:38;;;;;;;44.95;31.90;;;;;;;;;;5015287;28;20057;-58
2022/05/19 04:28:07;;;;;;;51.38;33.22;;;;;;;;;;5017914;28;20073;-58
2022/05/19 04:30:33;;;;;;;50.80;34.58;;;;;;;;;;5013225;28;20053;-58
2022/05/19 04:32:59;;;;;;;45.42;34.05;;;;;;;;;;5011866;28;21246;-58
2022/05/19 04:35:25;;;;;;;46.95;34.22;;;;;;;;;;5023478;28;20405;-58
2022/05/19 04:37:51;;;;;;;47.88;33.65;;;;;;;;;;5028932;28;20191;-58
2022/05/19 04:40:18;;;;;;;47.30;33.40;;;;;;;;;;5013078;28;20050;-58
2022/05/19 04:42:44;;;;;;;45.10;30.70;;;;;;;;;;5011078;28;20050;-58
2022/05/19 04:45:11;;;;;;;43.83;30.25;;;;;;;;;;5023218;28;20053;-58
2022/05/19 04:47:37;;;;;;;46.03;31.30;;;;;;;;;;5016406;28;20421;-58
2022/05/19 04:50:04;;;;;;;44.22;30.00;;;;;;;;;;5017715;28;20045;-59
2022/05/19 04:52:30;;;;;;;40.15;27.65;;;;;;;;;;5014450;28;20460;-58
2022/05/19 04:54:56;;;;;;;40.72;29.92;;;;;;;;;;5021005;28;20116;-58
2022/05/19 04:57:22;;;;;;;37.25;26.67;;;;;;;;;;5017394;28;20054;-58
2022/05/19 04:59:48;;;;;;;41.28;26.55;;;;;;;;;;5020983;28;20517;-58
2022/05/19 05:02:14;;;;;;;38.78;27.48;;;;;;;;;;5020239;28;20073;-58
2022/05/19 05:04:40;;;;;;;40.35;25.73;;;;;;;;;;5030780;28;20042;-58
2022/05/19 05:07:06;;;;;;;39.65;25.80;;;;;;;;;;5018915;28;20065;-58
2022/05/19 05:09:33;;;;;;;35.75;25.33;;;;;;;;;;5015333;28;20053;-58
2022/05/19 05:11:59;;;;;;;37.53;25.38;;;;;;;;;;5013996;28;20052;-58
2022/05/19 05:14:25;;;;;;;29.83;22.33;;;;;;;;;;5014921;28;20136;-58
2022/05/19 05:16:52;;;;;;;31.42;19.98;;;;;;;;;;5031513;28;20450;-58
2022/05/19 05:19:21;;;;;;;26.27;20.00;;;;;;;;;;5025813;28;20044;-58
2022/05/19 05:21:47;;;;;;;24.70;16.65;;;;;;;;;;5025162;28;20410;-58
2022/05/19 05:24:13;;;;;;;22.23;12.90;;;;;;;;;;5017924;28;20448;-58
2022/05/19 05:26:39;;;;;;;17.55;11.10;;;;;;;;;;5027120;28;20045;-58
2022/05/19 05:29:05;;;;;;;16.23;8.45;;;;;;;;;;5013168;28;20095;-58
2022/05/19 05:31:31;;;;;;;20.35;10.45;;;;;;;;;;5026108;28;20041;-59
2022/05/19 05:33:57;;;;;;;14.57;8.98;;;;;;;;;;5012049;28;20477;-59
2022/05/19 05:36:23;;;;;;;13.85;8.70;;;;;;;;;;5013294;28;20510;-59
2022/05/19 05:38:49;;;;;;;12.93;6.78;;;;;;;;;;5012443;28;20050;-59
2022/05/19 05:41:16;;;;;;;9.82;5.30;;;;;;;;;;5013732;28;20508;-59
2022/05/19 05:43:42;;;;;;;10.23;4.45;;;;;;;;;;5011633;28;20042;-59
2022/05/19 05:46:16;;;;;;;11.00;3.60;;;;;;;;;;5028809;28;20382;-59
2022/05/19 05:48:44;;;;;;;12.95;4.05;;;;;;;;;;5028408;28;20060;-59
2022/05/19 05:51:10;;;;;;;10.70;3.90;;;;;;;;;;5029224;28;20049;-58
2022/05/19 05:53:37;;;;;;;10.27;3.70;;;;;;;;;;5034925;28;20052;-58
2022/05/19 05:56:04;;;;;;;9.23;4.15;;;;;;;;;;5018673;28;20046;-58
2022/05/19 05:58:30;;;;;;;13.88;3.78;;;;;;;;;;5030191;28;20057;-59
2022/05/19 06:00:56;;;;;;;9.73;3.60;;;;;;;;;;5016728;28;20099;-58
2022/05/19 06:03:22;;;;;;;15.63;4.60;;;;;;;;;;5032968;28;20049;-58
2022/05/19 06:05:48;;;;;;;12.15;4.35;;;;;;;;;;5028770;28;20056;-59
2022/05/19 06:08:15;;;;;;;9.32;4.60;;;;;;;;;;5035713;28;20083;-59
2022/05/19 06:10:41;;;;;;;14.48;5.60;;;;;;;;;;5016197;28;20096;-59
2022/05/19 06:13:07;;;;;;;13.63;5.88;;;;;;;;;;5028681;28;20045;-59
2022/05/19 06:15:33;;;;;;;15.15;6.03;;;;;;;;;;5033824;28;20073;-58
2022/05/19 06:17:59;;;;;;;15.43;6.85;;;;;;;;;;5035288;28;20046;-59
2022/05/19 06:20:26;;;;;;;13.32;6.38;;;;;;;;;;5018738;28;20050;-58
2022/05/19 06:22:57;;;;;;;17.35;6.50;;;;;;;;;;5015498;28;20056;-59
2022/05/19 06:25:24;;;;;;;15.80;6.55;;;;;;;;;;5016961;28;20066;-60
2022/05/19 06:27:51;;;;;;;11.80;5.32;;;;;;;;;;5025380;28;20048;-60
2022/05/19 06:30:17;;;;;;;13.55;6.65;;;;;;;;;;5033474;28;20520;-60
2022/05/19 06:32:44;;;;;;;8.68;4.32;;;;;;;;;;5030677;28;20049;-60
2022/05/19 06:35:12;;;;;;;13.60;5.53;;;;;;;;;;5033205;28;20075;-60
2022/05/19 06:37:38;;;;;;;14.27;6.25;;;;;;;;;;5023242;28;20061;-60
2022/05/19 06:40:04;;;;;;;13.25;6.90;;;;;;;;;;5015252;28;20046;-60
2022/05/19 06:42:31;;;;;;;14.23;7.32;;;;;;;;;;5029739;28;20417;-60
2022/05/19 06:44:57;;;;;;;14.20;7.63;;;;;;;;;;5027611;28;20124;-60
2022/05/19 06:47:23;;;;;;;14.55;8.32;;;;;;;;;;5013444;28;20510;-60
2022/05/19 06:49:51;;;;;;;16.63;10.65;;;;;;;;;;5021179;28;20514;-60
2022/05/19 06:52:19;;;;;;;19.70;11.38;;;;;;;;;;5025846;28;20045;-60
2022/05/19 06:54:49;;;;;;;18.20;10.85;;;;;;;;;;5019271;28;20041;-60
2022/05/19 06:57:15;;;;;;;13.10;10.07;;;;;;;;;;5014410;28;20050;-60
2022/05/19 06:59:41;;;;;;;13.70;8.70;;;;;;;;;;5023074;28;20089;-60
2022/05/19 07:02:09;;;;;;;18.83;9.63;;;;;;;;;;5019417;28;20545;-60
2022/05/19 07:04:35;;;;;;;18.45;9.60;;;;;;;;;;5016540;28;20508;-60
2022/05/19 07:07:02;;;;;;;17.42;9.35;;;;;;;;;;5015369;28;20045;-61
2022/05/19 07:09:28;;;;;;;16.20;9.90;;;;;;;;;;5020015;28;20048;-60
2022/05/19 07:11:55;;;;;;;12.55;8.23;;;;;;;;;;5025969;28;20042;-60
2022/05/19 07:14:21;;;;;;;16.23;9.10;;;;;;;;;;5023569;28;20041;-60
2022/05/19 07:16:48;;;;;;;14.50;9.52;;;;;;;;;;5014180;28;20065;-60
2022/05/19 07:21:59;;;;;;;14.57;8.65;;;;;;;;;;5014273;28;20061;-60
2022/05/19 07:24:25;;;;;;;14.88;9.00;;;;;;;;;;5024784;28;20468;-60
2022/05/19 07:26:54;;;;;;;13.85;8.50;;;;;;;;;;5014109;28;20134;-60
2022/05/19 07:29:20;;;;;;;12.88;7.50;;;;;;;;;;5013115;28;20061;-60
2022/05/19 07:31:46;;;;;;;12.30;7.07;;;;;;;;;;5014155;28;20072;-60
2022/05/19 07:34:13;;;;;;;12.02;7.65;;;;;;;;;;5024708;28;20123;-60
2022/05/19 07:36:40;;;;;;;12.30;7.88;;;;;;;;;;5032870;28;20068;-61
2022/05/19 07:39:06;;;;;;;9.43;6.32;;;;;;;;;;5033664;28;20167;-60
2022/05/19 07:41:33;;;;;;;11.20;7.25;;;;;;;;;;5028102;28;20042;-60
2022/05/19 07:43:59;;;;;;;11.23;6.75;;;;;;;;;;5030637;28;20095;-60
2022/05/19 07:46:26;;;;;;;12.85;7.22;;;;;;;;;;5015906;28;20446;-60
2022/05/19 07:48:56;;;;;;;9.38;6.70;;;;;;;;;;5030406;28;20120;-60
2022/05/19 07:51:23;;;;;;;10.63;7.40;;;;;;;;;;5033672;28;20475;-60
2022/05/19 07:53:49;;;;;;;14.35;7.50;;;;;;;;;;5025204;28;20045;-60
2022/05/19 07:56:15;;;;;;;12.38;7.30;;;;;;;;;;5016438;28;20076;-60
2022/05/19 07:58:42;;;;;;;10.15;7.20;;;;;;;;;;5016854;28;20049;-59
2022/05/19 08:01:08;;;;;;;12.52;7.65;;;;;;;;;;5013770;28;20050;-60
2022/05/19 08:03:34;;;;;;;13.15;7.45;;;;;;;;;;5019034;28;20051;-60
2022/05/19 08:06:01;;;;;;;11.77;7.35;;;;;;;;;;5030778;28;20045;-59
2022/05/19 08:08:27;;;;;;;11.95;7.40;;;;;;;;;;5033211;28;20080;-59
2022/05/19 08:10:54;;;;;;;11.43;7.13;;;;;;;;;;5032137;28;20053;-60
2022/05/19 08:16:05;;;;;;;10.35;7.55;;;;;;;;;;5017295;28;20065;-60
2022/05/19 08:18:33;;;;;;;9.00;6.70;;;;;;;;;;5024247;28;20049;-60
2022/05/19 08:21:00;;;;;;;8.90;6.72;;;;;;;;;;5013333;28;20080;-59
2022/05/19 08:23:31;;;;;;;11.27;7.28;;;;;;;;;;5016679;28;20046;-60
2022/05/19 08:25:57;;;;;;;12.00;7.90;;;;;;;;;;5028739;28;20112;-60
2022/05/19 08:28:29;;;;;;;11.77;7.30;;;;;;;;;;5032089;28;20045;-59
2022/05/19 08:30:56;;;;;;;10.48;7.43;;;;;;;;;;5033087;28;20111;-60
2022/05/19 08:33:22;;;;;;;14.27;7.40;;;;;;;;;;5029561;28;20096;-60
2022/05/19 08:35:49;;;;;;;13.65;8.00;;;;;;;;;;5024364;28;20120;-60
2022/05/19 08:38:15;;;;;;;12.50;7.68;;;;;;;;;;5023131;28;20493;-60
2022/05/19 08:40:50;;;;;;;10.20;7.03;;;;;;;;;;5023754;28;20554;-60
2022/05/19 08:43:17;;;;;;;11.15;7.80;;;;;;;;;;5014799;28;20048;-60
2022/05/19 08:45:47;;;;;;;12.35;7.15;;;;;;;;;;5018533;28;20042;-60
2022/05/19 08:48:19;;;;;;;12.23;7.38;;;;;;;;;;5026422;28;20523;-60
2022/05/19 08:50:54;;;;;;;12.38;7.28;;;;;;;;;;5031477;28;20050;-60
2022/05/19 08:53:28;;;;;;;8.30;6.32;;;;;;;;;;5029073;28;20077;-60
2022/05/19 08:55:59;;;;;;;9.30;5.50;;;;;;;;;;5013965;28;20042;-60
2022/05/19 08:58:57;;;;;;;9.77;6.22;;;21.70;99.90;;;;;;5025733;28;20054;-60
2022/05/19 09:01:28;;;;;;;12.23;6.03;;;;;;;;;;5011560;28;20065;-60
2022/05/19 09:04:14;;;;;;;10.75;5.90;;;;;;;;;;5012790;28;20061;-60
2022/05/19 09:07:56;;;;;;;8.77;6.18;;;22.30;99.90;;;;;;5031961;28;20417;-60
2022/05/19 09:09:49;;;;;;;8.32;5.47;;;22.30;99.90;;;;;;5021747;28;20057;-59
2022/05/19 09:12:19;;;;;;;10.77;6.15;;;22.60;99.90;;;;;;5031492;28;20042;-60
2022/05/19 09:14:46;;;;;;;11.52;6.13;;;;;;;;;;5032403;28;20053;-59
2022/05/19 09:17:12;;;;;;;7.32;5.47;;;22.10;99.90;;;;;;5030626;28;20045;-60
2022/05/19 09:19:44;;;;;;;7.57;4.95;;;;;;;;;;5018097;28;20058;-60
2022/05/19 09:22:15;;;;;;;9.30;5.35;;;;;;;;;;5028638;28;20063;-59
2022/05/19 09:24:45;;;;;;;9.32;5.28;;;22.60;99.90;;;;;;5015233;28;20521;-60
2022/05/19 09:27:11;;;;;;;9.40;6.13;;;;;;;;;;5013076;28;20042;-60
2022/05/19 09:29:49;;;;;;;10.73;5.80;;;22.50;99.90;;;;;;5014527;28;20048;-59
2022/05/19 09:32:24;;;;;;;7.78;5.38;;;22.60;99.90;;;;;;5023181;28;20053;-60
2022/05/19 09:34:53;;;;;;;8.15;5.10;;;22.90;99.90;;;;;;5035997;28;20056;-59
2022/05/19 09:37:42;;;;;;;7.53;4.30;;;23.00;99.90;;;;;;5030002;28;20080;-67
2022/05/19 09:40:11;;;;;;;8.20;4.93;;;23.10;99.90;;;;;;5028501;28;20033;-64
2022/05/19 09:42:58;;;;;;;7.20;4.50;;;23.40;99.90;;;;;;5022510;28;20050;-69
2022/05/19 09:45:27;;;;;;;7.40;4.53;;;23.40;99.90;;;;;;5024899;28;20421;-68
2022/05/19 09:48:00;;;;;;;6.55;4.53;;;23.10;99.90;;;;;;5030545;28;20053;-68
2022/05/19 09:50:30;;;;;;;6.03;4.05;;;23.60;99.90;;;;;;5028894;28;20038;-62
2022/05/19 09:53:05;;;;;;;6.43;3.67;;;23.90;99.90;;;;;;5031810;28;20500;-60
2022/05/19 09:55:31;;;;;;;5.35;3.55;;;24.00;99.90;;;;;;5030447;28;20037;-60
2022/05/19 09:58:02;;;;;;;5.38;3.22;;;24.20;99.90;;;;;;5018206;28;20042;-61
2022/05/19 10:00:40;;;;;;;5.55;3.63;;;24.60;99.90;;;;;;5027969;28;20075;-61
2022/05/19 10:03:16;;;;;;;6.30;2.67;;;24.70;99.90;;;;;;5026329;28;20555;-60
2022/05/19 10:05:43;;;;;;;4.72;1.90;;;;;;;;;;5019729;28;20080;-61
2022/05/19 10:08:38;;;;;;;5.28;2.47;;;24.50;99.90;;;;;;5016312;28;20136;-61
2022/05/19 10:11:21;;;;;;;6.57;2.65;;;24.60;99.90;;;;;;5019551;28;20049;-61
2022/05/19 10:14:10;;;;;;;4.88;3.38;;;24.90;99.90;;;;;;5025521;28;20038;-60
2022/05/19 10:16:57;;;;;;;3.67;2.22;;;25.00;99.90;;;;;;5018401;28;20054;-61
2022/05/19 10:19:36;;;;;;;5.05;1.98;;;25.30;99.90;;;;;;5023052;28;20050;-59
2022/05/19 10:22:51;;;;;;;4.93;2.00;;;25.40;99.90;;;;;;5015426;28;20038;-60
2022/05/19 10:25:38;;;;;;;5.00;3.22;;;25.70;99.90;;;;;;4986561;28;20050;-58
2022/05/19 10:31:25;;;;;;;6.10;3.53;;;25.90;99.90;;;;;;4983326;28;20865;-59
2022/05/19 10:34:20;;;;;;;7.13;3.38;;;25.60;99.90;;;;;;4985127;28;20050;-59
2022/05/19 10:37:00;;;;;;;6.22;2.90;;;25.60;99.90;;;;;;4989859;28;20522;-60
2022/05/19 10:39:59;;;;;;;6.05;3.10;;;25.70;99.90;;;;;;4988143;28;20129;-60
2022/05/19 10:42:38;;;;;;;9.23;4.28;;;25.40;99.90;;;;;;4987390;28;20065;-60
2022/05/19 10:45:32;;;;;;;5.20;3.17;;;25.30;99.90;;;;;;4990265;28;20046;-60
2022/05/19 10:48:15;;;;;;;4.88;3.25;;;25.40;99.90;;;;;;4979450;28;20050;-60
2022/05/19 10:51:07;;;;;;;6.95;3.47;;;25.50;99.90;;;;;;4987908;28;20055;-61
2022/05/19 10:53:54;;;;;;;5.95;3.33;;;25.70;99.90;;;;;;4975164;28;20573;-63
2022/05/19 10:56:43;;;;;;;5.22;3.60;;;25.50;99.90;;;;;;4995885;28;20054;-62
2022/05/19 10:59:46;;;;;;;8.18;3.85;;;26.10;99.90;;;;;;5028242;28;20056;-61
2022/05/19 11:02:46;;;;;;;9.88;4.38;;;26.10;99.90;;;;;;4943857;28;20054;-62
2022/05/19 11:05:34;;;;;;;7.25;4.78;;;26.00;99.90;;;;;;4983329;28;20043;-60
2022/05/19 11:08:00;;;;;;;6.18;3.65;;;;;;;;;;4973724;28;20161;-63
2022/05/19 11:10:51;;;;;;;5.72;3.70;;;25.90;99.90;;;;;;4988585;28;20125;-62
2022/05/19 11:13:47;;;;;;;5.65;3.65;;;25.80;99.90;;;;;;4971067;28;20042;-62
2022/05/19 11:16:24;;;;;;;6.03;3.60;;;25.60;99.90;;;;;;4979059;28;20148;-62
2022/05/19 11:18:58;;;;;;;6.05;3.40;;;25.90;99.90;;;;;;4976813;28;20053;-63
2022/05/19 11:21:24;;;;;;;5.20;2.83;;;;;;;;;;4974002;28;20134;-62
2022/05/19 11:24:07;;;;;;;4.43;2.75;;;26.50;99.90;;;;;;4957801;28;20133;-62
2022/05/19 11:27:04;;;;;;;5.90;2.42;;;26.90;99.90;;;;;;4974400;28;20069;-63
2022/05/19 11:29:45;;;;;;;3.60;1.83;;;26.90;99.90;;;;;;4974157;28;20067;-64
2022/05/19 11:32:18;;;;;;;3.35;1.90;;;26.70;99.90;;;;;;4985586;28;20222;-59
2022/05/19 11:34:56;;;;;;;4.50;2.50;;;26.50;99.90;;;;;;4991145;28;20057;-60
2022/05/19 11:37:34;;;;;;;4.97;2.33;;;26.20;99.90;;;;;;5025104;28;20053;-61
2022/05/19 11:40:36;;;;;;;4.75;2.78;;;26.20;99.90;;;;;;5016479;28;20056;-63
2022/05/19 11:43:32;;;;;;;4.80;2.38;;;26.00;99.90;;;;;;5009436;28;20061;-63
2022/05/19 11:45:58;;;;;;;4.93;3.30;;;;;;;;;;5014173;28;20038;-63
2022/05/19 11:57:31;;;;;;;7.07;2.60;;;25.50;99.90;;;;;;5026200;28;20057;-71
2022/05/19 12:00:00;;;;;;;5.10;2.50;;;25.30;99.90;;;;;;5014641;28;20149;-69
2022/05/19 12:02:32;;;;;;;4.28;2.25;;;25.20;99.90;;;;;;5024082;28;20106;-69
2022/05/19 12:05:10;;;;;;;5.95;2.40;;;25.00;99.90;;;;;;5026303;28;20036;-69
2022/05/19 12:08:11;;;;;;;3.00;2.28;;;24.70;99.90;;;;;;5028557;28;20098;-68
2022/05/19 12:10:42;;;;;;;2.92;2.25;;;24.40;99.90;;;;;;5005233;28;20058;-69
2022/05/19 12:13:09;;;;;;;3.70;2.33;;;24.70;99.90;;;;;;5012347;28;20506;-68
2022/05/19 12:15:35;;;;;;;3.13;2.42;;;;;;;;;;5011760;28;20738;-68
2022/05/19 12:18:22;;;;;;;3.78;2.70;;;24.20;99.90;;;;;;5032889;28;20049;-68
2022/05/19 12:21:00;;;;;;;4.47;2.70;;;24.50;99.90;;;;;;5031085;28;20524;-68
2022/05/19 12:23:29;;;;;;;6.85;2.85;;;;;;;;;;5014563;28;20045;-68
2022/05/19 12:26:00;;;;;;;4.53;3.72;;;;;;;;;;5024489;28;20037;-67
2022/05/19 12:28:32;;;;;;;11.82;4.53;;;;;;;;;;5032661;28;20458;-68
2022/05/19 12:34:12;;;;;;;6.75;4.70;;;;;;;;;;5030301;28;20088;-68
2022/05/19 12:36:44;;;;;;;11.32;5.90;;;;;;;;;;5011865;28;20050;-69
2022/05/19 12:39:13;;;;;;;9.02;5.43;;;;;;;;;;5012003;28;20081;-69
2022/05/19 12:41:52;;;;;;;11.27;6.60;;;;;;;;;;5011765;28;20038;-68
2022/05/19 12:44:41;;;;;;;9.60;6.40;;;;;;;;;;5017879;28;20128;-67
2022/05/19 12:47:12;;;;;;;9.55;5.95;;;;;;;;;;5030810;28;20060;-64
2022/05/19 12:49:40;;;;;;;10.55;6.53;;;;;;;;;;5022132;28;20429;-65
2022/05/19 12:52:18;;;;;;;10.88;6.20;;;;;;;;;;5027325;28;20078;-64
2022/05/19 12:54:52;;;;;;;15.15;7.50;;;;;;;;;;5008074;28;20046;-62
2022/05/19 12:57:28;;;;;;;14.32;7.22;;;;;;;;;;4996397;28;20130;-63
2022/05/19 12:59:57;;;;;;;9.73;6.38;;;;;;;;;;4994930;28;20053;-63
2022/05/19 13:02:26;;;;;;;13.48;6.70;;;;;;;;;;5027851;28;20287;-62
2022/05/19 13:04:55;;;;;;;7.88;5.28;;;;;;;;;;5021507;28;20046;-61
2022/05/19 13:07:29;;;;;;;8.63;3.17;;;;;;;;;;5013283;28;20084;-62
2022/05/19 13:10:00;;;;;;;5.78;2.60;;;;;;;;;;5015127;28;20081;-61
2022/05/19 13:12:28;;;;;;;7.43;3.03;;;;;;;;;;5014984;28;20049;-62
2022/05/19 13:14:55;;;;;;;5.25;2.55;;;;;;;;;;5014350;28;20053;-62
2022/05/19 13:17:33;;;;;;;5.55;2.15;;;;;;;;;;5011858;28;20103;-61
2022/05/19 13:19:59;;;;;;;7.05;2.15;;;;;;;;;;5001906;28;20478;-62
2022/05/19 13:22:28;;;;;;;4.28;1.83;;;;;;;;;;5026190;28;20049;-61
2022/05/19 13:24:56;;;;;;;7.28;2.13;;;;;;;;;;4995876;28;20046;-63
2022/05/19 13:30:22;;;;;;;4.80;2.25;;;;;;;;;;5023541;28;20053;-62
2022/05/19 13:32:48;;;;;;;7.70;2.92;;;;;;;;;;5022447;28;20049;-66
2022/05/19 13:35:16;;;;;;;5.82;2.25;;;;;;;;;;5028632;28;20183;-62
2022/05/19 13:37:43;;;;;;;8.52;2.90;;;;;;;;;;5027437;28;20058;-62
2022/05/19 13:40:29;;;;;;;7.57;2.92;;;;;;;;;;5023412;28;20053;-64
2022/05/19 13:43:00;;;;;;;8.35;2.90;;;;;;;;;;5027553;28;20088;-63
2022/05/19 13:45:42;;;;;;;5.18;2.75;;;;;;;;;;5028415;28;20506;-63
2022/05/19 13:48:16;;;;;;;5.50;3.28;;;;;;;;;;5026017;28;20045;-66
2022/05/19 13:50:43;;;;;;;6.97;2.80;;;;;;;;;;5024754;28;20148;-64
2022/05/19 13:53:09;;;;;;;8.80;3.20;;;;;;;;;;5024285;28;20498;-65
2022/05/19 13:55:37;;;;;;;6.47;3.05;;;;;;;;;;5022961;28;20046;-63
2022/05/19 13:58:03;;;;;;;8.73;3.20;;;;;;;;;;5026440;28;20076;-64
2022/05/19 14:00:31;;;;;;;6.18;3.30;;;;;;;;;;5029892;28;20521;-64
2022/05/19 14:03:00;;;;;;;8.57;3.60;;;;;;;;;;4998600;28;20042;-64
2022/05/19 14:05:32;;;;;;;8.18;3.40;;;;;;;;;;5011317;28;20038;-64
2022/05/19 14:07:59;;;;;;;7.07;3.65;;;;;;;;;;5016269;28;20061;-64
2022/05/19 14:10:27;;;;;;;7.32;3.42;;;;;;;;;;5026338;28;20049;-64
2022/05/19 14:12:57;;;;;;;9.77;4.40;;;;;;;;;;5020290;28;20050;-64
2022/05/19 14:15:46;;;;;;;10.48;4.13;;;;;;;;;;5017734;28;20049;-64
2022/05/19 14:18:14;;;;;;;9.30;4.55;;;;;;;;;;5026468;28;20054;-64
2022/05/19 14:20:41;;;;;;;9.80;4.63;;;;;;;;;;5033480;28;20059;-63
2022/05/19 14:23:19;;;;;;;10.50;4.05;;;;;;;;;;5030107;28;20049;-63
2022/05/19 14:25:47;;;;;;;9.05;3.85;;;;;;;;;;5025250;28;20046;-63
2022/05/19 14:28:19;;;;;;;4.95;3.25;;;;;;;;;;4997752;28;20383;-64
2022/05/19 14:30:45;;;;;;;6.03;4.10;;;;;;;;;;5031811;28;20382;-64
2022/05/19 14:33:21;;;;;;;6.20;4.25;;;;;;;;;;5032813;28;20056;-64
2022/05/19 14:35:54;;;;;;;6.82;4.80;;;;;;;;;;5006512;28;20042;-64
2022/05/19 14:38:24;;;;;;;9.38;4.53;;;;;;;;;;5015157;28;20042;-66
2022/05/19 14:43:38;;;;;;;11.90;5.43;;;;;;;;;;5016889;28;20045;-66
2022/05/19 14:46:07;;;;;;;8.52;4.25;;;;;;;;;;5020348;28;20038;-65
2022/05/19 14:48:38;;;;;;;7.55;3.65;;;;;;;;;;5014126;28;20060;-65
2022/05/19 14:51:07;;;;;;;8.43;3.85;;;;;;;;;;5015979;28;20073;-65
2022/05/19 14:53:35;;;;;;;5.25;3.95;;;;;;;;;;5037769;28;20547;-66